createdAt,value
2023-01-21T00:01:00.535Z,42.53
2023-01-21T00:03:27.996Z,41.20
2023-01-21T00:05:55.412Z,38.30
2023-01-21T00:08:22.601Z,37.27
2023-01-21T00:10:49.739Z,34.63
2023-01-21T00:13:17.236Z,42.27
2023-01-21T00:15:45.152Z,36.97
2023-01-21T00:18:12.434Z,24.33
2023-01-21T00:20:39.612Z,40.73
2023-01-21T00:23:06.829Z,40.47
2023-01-21T00:25:34.051Z,36.80
2023-01-21T00:28:01.325Z,40.00
2023-01-21T00:30:28.559Z,44.70
2023-01-21T00:32:55.741Z,41.07
2023-01-21T00:35:22.919Z,38.20
2023-01-21T00:37:52.032Z,33.97
2023-01-21T00:40:19.346Z,39.37
2023-01-21T00:42:46.646Z,40.07
2023-01-21T00:45:13.802Z,33.67
2023-01-21T00:47:41.092Z,30.07
2023-01-21T00:50:08.969Z,30.50
2023-01-21T00:52:36.381Z,32.77
2023-01-21T00:55:03.643Z,29.90
2023-01-21T00:57:30.891Z,35.90
2023-01-21T00:59:58.213Z,35.90
2023-01-21T01:02:25.450Z,36.87
2023-01-21T01:04:52.706Z,33.93
2023-01-21T01:07:19.922Z,41.37
2023-01-21T01:09:49.883Z,35.63
2023-01-21T01:12:17.104Z,32.50
2023-01-21T01:14:44.270Z,29.27
2023-01-21T01:17:11.439Z,40.17
2023-01-21T01:19:38.621Z,30.37
2023-01-21T01:22:05.770Z,37.70
2023-01-21T01:24:32.967Z,39.13
2023-01-21T01:27:00.202Z,43.90
2023-01-21T01:29:28.606Z,30.33
2023-01-21T01:31:56.222Z,37.13
2023-01-21T01:34:23.424Z,35.57
2023-01-21T01:36:50.733Z,38.53
2023-01-21T01:39:17.932Z,34.50
2023-01-21T01:41:45.184Z,44.13
2023-01-21T01:44:30.946Z,35.83
2023-01-21T01:46:59.357Z,41.37
2023-01-21T01:49:26.580Z,36.33
2023-01-21T01:51:55.486Z,38.83
2023-01-21T01:54:30.163Z,51.30
2023-01-21T01:56:58.587Z,31.30
2023-01-21T01:59:25.807Z,39.87
2023-01-21T02:01:53.341Z,40.60
2023-01-21T02:04:27.277Z,40.30
2023-01-21T02:06:55.795Z,37.10
2023-01-21T02:09:23.375Z,41.57
2023-01-21T02:11:50.660Z,39.90
2023-01-21T02:14:18.853Z,48.07
2023-01-21T02:16:52.573Z,35.60
2023-01-21T02:19:25.873Z,39.97
2023-01-21T02:22:08.211Z,36.27
2023-01-21T02:24:41.379Z,37.67
2023-01-21T02:27:17.491Z,35.17
2023-01-21T02:29:52.463Z,35.90
2023-01-21T02:32:19.606Z,35.60
2023-01-21T02:34:53.578Z,36.10
2023-01-21T02:37:26.976Z,39.67
2023-01-21T02:40:07.337Z,44.93
2023-01-21T02:42:43.759Z,33.93
2023-01-21T02:45:14.008Z,36.17
2023-01-21T02:47:41.406Z,38.90
2023-01-21T02:50:14.764Z,37.13
2023-01-21T02:52:42.172Z,34.73
2023-01-21T02:55:13.609Z,37.60
2023-01-21T02:57:49.950Z,39.97
2023-01-21T03:00:19.436Z,37.97
2023-01-21T03:02:52.673Z,39.40
2023-01-21T03:05:20.056Z,38.97
2023-01-21T03:07:55.071Z,38.67
2023-01-21T03:10:29.736Z,30.87
2023-01-21T03:13:01.671Z,31.90
2023-01-21T03:16:00.088Z,35.30
2023-01-21T03:18:31.947Z,31.57
2023-01-21T03:21:19.311Z,34.30
2023-01-21T03:23:49.536Z,35.83
2023-01-21T03:26:28.782Z,31.37
2023-01-21T03:28:59.047Z,32.90
2023-01-21T03:31:28.961Z,39.77
2023-01-21T03:34:00.132Z,29.87
2023-01-21T03:36:50.445Z,28.77
2023-01-21T03:39:39.051Z,31.20
2023-01-21T03:42:06.282Z,32.67
2023-01-21T03:44:33.699Z,30.93
2023-01-21T03:47:15.510Z,33.37
2023-01-21T03:49:46.878Z,32.07
2023-01-21T03:52:14.464Z,32.30
2023-01-21T03:54:41.954Z,31.20
2023-01-21T03:57:09.169Z,33.73
2023-01-21T03:59:36.471Z,28.43
2023-01-21T04:02:03.721Z,34.20
2023-01-21T04:04:30.876Z,38.37
2023-01-21T04:06:58.195Z,33.33
2023-01-21T04:09:25.396Z,30.13
2023-01-21T04:11:52.583Z,35.03
2023-01-21T04:14:19.922Z,30.03
2023-01-21T04:16:47.200Z,34.57
2023-01-21T04:19:14.363Z,31.10
2023-01-21T04:21:41.536Z,26.27
2023-01-21T04:24:08.962Z,34.97
2023-01-21T04:26:36.119Z,33.80
2023-01-21T04:29:03.388Z,36.13
2023-01-21T04:31:30.559Z,31.87
2023-01-21T04:33:57.831Z,35.00
2023-01-21T04:36:25.109Z,35.30
2023-01-21T04:38:52.339Z,29.10
2023-01-21T04:41:19.737Z,31.53
2023-01-21T04:43:46.929Z,32.00
2023-01-21T04:46:14.200Z,28.97
2023-01-21T04:48:41.357Z,34.70
2023-01-21T04:51:08.528Z,32.43
2023-01-21T04:53:35.818Z,28.63
2023-01-21T04:56:03.032Z,33.10
2023-01-21T04:58:30.241Z,27.07
2023-01-21T05:00:57.438Z,28.77
2023-01-21T05:03:24.643Z,32.47
2023-01-21T05:05:51.849Z,33.30
2023-01-21T05:08:19.011Z,34.27
2023-01-21T05:10:46.248Z,27.97
2023-01-21T05:13:13.535Z,30.10
2023-01-21T05:15:40.706Z,39.87
2023-01-21T05:18:07.870Z,37.50
2023-01-21T05:20:35.038Z,34.43
2023-01-21T05:23:02.298Z,31.00
2023-01-21T05:25:29.499Z,30.77
2023-01-21T05:27:56.958Z,29.27
2023-01-21T05:30:24.390Z,32.03
2023-01-21T05:32:52.612Z,30.90
2023-01-21T05:35:20.685Z,34.63
2023-01-21T05:37:48.022Z,33.90
2023-01-21T05:40:17.088Z,34.90
2023-01-21T05:42:44.466Z,34.50
2023-01-21T05:45:12.068Z,31.77
2023-01-21T05:47:39.409Z,34.37
2023-01-21T05:50:07.150Z,27.23
2023-01-21T05:52:34.439Z,31.17
2023-01-21T05:55:02.943Z,34.63
2023-01-21T05:57:30.577Z,28.73
2023-01-21T05:59:57.955Z,31.60
2023-01-21T06:02:25.304Z,28.67
2023-01-21T06:04:52.465Z,30.30
2023-01-21T06:07:19.776Z,24.67
2023-01-21T06:09:46.958Z,24.53
2023-01-21T06:12:14.131Z,30.90
2023-01-21T06:14:41.341Z,25.90
2023-01-21T06:17:08.639Z,25.47
2023-01-21T06:19:35.849Z,28.47
2023-01-21T06:22:03.223Z,32.03
2023-01-21T06:24:30.350Z,27.13
2023-01-21T06:26:57.636Z,26.80
2023-01-21T06:29:24.767Z,24.97
2023-01-21T06:31:52.074Z,31.00
2023-01-21T06:34:19.402Z,26.87
2023-01-21T06:36:46.600Z,26.17
2023-01-21T06:39:13.725Z,30.67
2023-01-21T06:41:40.941Z,28.30
2023-01-21T06:44:08.216Z,28.80
2023-01-21T06:46:35.598Z,28.87
2023-01-21T06:49:02.943Z,27.10
2023-01-21T06:51:30.089Z,28.40
2023-01-21T06:53:57.273Z,24.13
2023-01-21T06:56:24.757Z,25.90
2023-01-21T06:58:51.887Z,23.93
2023-01-21T07:01:19.852Z,28.37
2023-01-21T07:03:47.094Z,25.17
2023-01-21T07:06:14.401Z,27.43
2023-01-21T07:08:41.709Z,25.53
2023-01-21T07:11:08.912Z,26.47
2023-01-21T07:13:36.040Z,27.60
2023-01-21T07:16:05.964Z,24.47
2023-01-21T07:18:34.012Z,25.73
2023-01-21T07:21:01.339Z,28.93
2023-01-21T07:23:30.072Z,25.97
2023-01-21T07:25:57.934Z,22.33
2023-01-21T07:28:25.108Z,27.00
2023-01-21T07:30:52.432Z,26.53
2023-01-21T07:33:19.596Z,29.50
2023-01-21T07:35:46.771Z,27.07
2023-01-21T07:38:13.894Z,27.10
2023-01-21T07:40:41.024Z,24.17
2023-01-21T07:43:09.385Z,26.30
2023-01-21T07:45:36.961Z,21.50
2023-01-21T07:48:04.293Z,22.43
2023-01-21T07:50:31.491Z,25.60
2023-01-21T07:52:59.715Z,24.23
2023-01-21T07:55:27.278Z,21.27
2023-01-21T07:57:56.939Z,19.53
2023-01-21T08:00:27.055Z,18.80
2023-01-21T08:02:55.519Z,20.43
2023-01-21T08:05:23.288Z,19.50
2023-01-21T08:07:50.862Z,15.97
2023-01-21T08:10:18.346Z,19.53
2023-01-21T08:12:45.788Z,17.30
2023-01-21T08:15:13.200Z,15.23
2023-01-21T08:17:41.150Z,17.67
2023-01-21T08:20:09.691Z,12.93
2023-01-21T08:22:37.046Z,23.83
2023-01-21T08:25:05.018Z,17.00
2023-01-21T08:27:32.435Z,20.80
2023-01-21T08:29:59.715Z,14.67
2023-01-21T08:32:26.861Z,17.73
2023-01-21T08:34:53.999Z,10.47
2023-01-21T08:37:21.262Z,16.87
2023-01-21T08:39:48.424Z,15.67
2023-01-21T08:42:15.596Z,14.20
2023-01-21T08:44:42.799Z,17.07
2023-01-21T08:47:09.942Z,12.50
2023-01-21T08:49:37.075Z,16.13
2023-01-21T08:52:04.620Z,12.17
2023-01-21T08:54:31.898Z,10.77
2023-01-21T08:56:59.255Z,11.40
2023-01-21T08:59:28.800Z,12.13
2023-01-21T09:01:56.473Z,15.77
2023-01-21T09:04:23.939Z,11.33
2023-01-21T09:06:51.255Z,11.73
2023-01-21T09:09:18.607Z,12.70
2023-01-21T09:11:45.835Z,17.90
2023-01-21T09:14:13.022Z,11.80
2023-01-21T09:16:40.314Z,14.43
2023-01-21T09:19:07.550Z,10.70
2023-01-21T09:21:34.951Z,11.60
2023-01-21T09:24:03.011Z,12.77
2023-01-21T09:26:30.348Z,15.10
2023-01-21T09:28:59.614Z,14.47
2023-01-21T09:31:28.240Z,15.50
2023-01-21T09:34:00.368Z,13.40
2023-01-21T09:36:29.027Z,16.27
2023-01-21T09:38:56.601Z,11.60
2023-01-21T09:41:26.705Z,17.90
2023-01-21T09:43:53.894Z,11.93
2023-01-21T09:46:47.416Z,13.07
2023-01-21T09:49:20.321Z,11.97
2023-01-21T09:51:47.700Z,12.77
2023-01-21T09:54:25.554Z,13.00
2023-01-21T09:57:08.606Z,12.63
2023-01-21T09:59:42.735Z,12.53
2023-01-21T10:02:20.024Z,11.03
2023-01-21T10:04:55.844Z,11.13
2023-01-21T10:07:50.369Z,7.27
2023-01-21T10:10:30.780Z,9.93
2023-01-21T10:13:06.462Z,11.80
2023-01-21T10:15:36.671Z,9.93
2023-01-21T10:18:12.326Z,9.20
2023-01-21T10:20:48.599Z,10.33
2023-01-21T10:23:21.594Z,11.97
2023-01-21T10:25:52.058Z,13.40
2023-01-21T10:28:23.722Z,9.33
2023-01-21T10:30:52.553Z,10.77
2023-01-21T10:33:21.706Z,11.00
2023-01-21T10:35:51.906Z,13.50
2023-01-21T10:38:21.846Z,10.33
2023-01-21T10:40:59.595Z,11.27
2023-01-21T10:43:36.158Z,11.73
2023-01-21T10:46:29.632Z,14.73
2023-01-21T10:49:15.534Z,11.50
2023-01-21T10:51:48.237Z,11.40
2023-01-21T10:54:15.419Z,19.13
2023-01-21T10:56:48.498Z,15.00
2023-01-21T10:59:17.070Z,15.53
2023-01-21T11:01:47.238Z,10.17
2023-01-21T11:04:20.736Z,9.33
2023-01-21T11:06:58.647Z,12.53
2023-01-21T11:09:27.334Z,11.47
2023-01-21T11:11:54.569Z,8.77
2023-01-21T11:14:22.200Z,11.27
2023-01-21T11:16:50.560Z,8.20
2023-01-21T11:19:22.525Z,13.17
2023-01-21T11:22:08.577Z,13.73
2023-01-21T11:24:43.613Z,10.10
2023-01-21T11:27:21.449Z,17.70
2023-01-21T11:29:49.821Z,11.83
2023-01-21T11:32:17.711Z,8.77
2023-01-21T11:34:46.623Z,7.87
2023-01-21T11:37:22.839Z,9.77
2023-01-21T11:39:55.047Z,9.50
2023-01-21T11:42:22.670Z,9.43
2023-01-21T11:44:56.218Z,13.17
2023-01-21T11:47:30.675Z,7.70
2023-01-21T11:50:03.048Z,10.20
2023-01-21T11:52:30.221Z,8.53
2023-01-21T11:54:57.461Z,8.60
2023-01-21T11:57:27.041Z,11.00
2023-01-21T11:59:57.275Z,11.83
2023-01-21T12:02:35.490Z,12.20
2023-01-21T12:05:05.284Z,12.67
2023-01-21T12:07:34.885Z,12.83
2023-01-21T12:10:04.965Z,10.77
2023-01-21T12:12:37.414Z,10.53
2023-01-21T12:15:23.207Z,11.80
2023-01-21T12:17:56.455Z,9.63
2023-01-21T12:20:49.904Z,12.40
2023-01-21T12:23:28.902Z,9.97
2023-01-21T12:25:59.403Z,10.67
2023-01-21T12:28:41.212Z,13.93
2023-01-21T12:31:43.510Z,9.43
2023-01-21T12:34:31.061Z,11.20
2023-01-21T12:37:03.689Z,9.53
2023-01-21T12:39:33.641Z,11.73
2023-01-21T12:42:07.181Z,12.27
2023-01-21T12:44:37.519Z,9.03
2023-01-21T12:47:09.919Z,9.27
2023-01-21T12:49:53.375Z,10.47
2023-01-21T12:52:23.596Z,11.63
2023-01-21T12:54:59.689Z,10.20
2023-01-21T12:57:32.358Z,9.87
2023-01-21T13:00:03.518Z,9.97
2023-01-21T13:02:36.880Z,8.83
2023-01-21T13:05:07.078Z,11.37
2023-01-21T13:07:52.886Z,9.97
2023-01-21T13:10:23.244Z,9.33
2023-01-21T13:12:52.770Z,12.60
2023-01-21T13:15:24.778Z,11.33
2023-01-21T13:17:54.481Z,10.63
2023-01-21T13:20:22.585Z,10.67
2023-01-21T13:22:58.738Z,12.00
2023-01-21T13:25:25.997Z,10.63
2023-01-21T13:27:53.168Z,10.07
2023-01-21T13:30:38.993Z,9.37
2023-01-21T13:33:15.248Z,9.47
2023-01-21T13:35:42.406Z,7.27
2023-01-21T13:38:25.004Z,7.60
2023-01-21T13:40:52.484Z,13.97
2023-01-21T13:43:19.685Z,8.57
2023-01-21T13:45:47.005Z,9.17
2023-01-21T13:48:20.335Z,8.50
2023-01-21T13:51:00.733Z,9.27
2023-01-21T13:53:46.552Z,8.87
2023-01-21T13:56:13.682Z,8.80
2023-01-21T13:58:43.675Z,8.97
2023-01-21T14:01:23.472Z,9.83
2023-01-21T14:03:50.653Z,9.40
2023-01-21T14:06:24.626Z,8.37
2023-01-21T14:08:58.857Z,9.23
2023-01-21T14:11:32.398Z,7.77
2023-01-21T14:14:18.381Z,7.73
2023-01-21T14:17:04.465Z,7.40
2023-01-21T14:19:34.759Z,8.33
2023-01-21T14:22:02.862Z,10.27
2023-01-21T14:24:32.860Z,6.70
2023-01-21T14:27:18.700Z,7.63
2023-01-21T14:29:54.686Z,8.60
2023-01-21T14:32:25.115Z,7.00
2023-01-21T14:35:03.931Z,7.10
2023-01-21T14:37:38.653Z,5.40
2023-01-21T14:40:14.435Z,8.23
2023-01-21T14:42:46.375Z,8.17
2023-01-21T14:45:15.183Z,6.97
2023-01-21T14:50:37.290Z,8.40
2023-01-21T14:53:10.911Z,6.70
2023-01-21T14:55:39.610Z,6.70
2023-01-21T14:58:22.869Z,5.10
2023-01-21T15:00:51.456Z,5.00
2023-01-21T15:03:27.496Z,5.60
2023-01-21T15:05:56.321Z,5.97
2023-01-21T15:08:28.004Z,5.43
2023-01-21T15:11:06.022Z,6.03
2023-01-21T15:13:33.392Z,9.47
2023-01-21T15:16:20.274Z,7.57
2023-01-21T15:19:06.022Z,7.07
2023-01-21T15:21:53.553Z,8.60
2023-01-21T15:24:26.888Z,7.73
2023-01-21T15:27:12.960Z,6.63
2023-01-21T15:29:41.159Z,8.63
2023-01-21T15:32:27.534Z,6.00
2023-01-21T15:34:59.706Z,5.63
2023-01-21T15:37:27.697Z,7.00
2023-01-21T15:40:00.641Z,9.57
2023-01-21T15:42:45.378Z,7.67
2023-01-21T15:45:30.247Z,10.50
2023-01-21T15:48:02.987Z,31.07
2023-01-21T15:50:50.536Z,19.80
2023-01-21T15:53:36.403Z,6.10
2023-01-21T15:56:30.426Z,14.67
2023-01-21T15:59:16.595Z,8.10
2023-01-21T16:01:43.849Z,8.13
2023-01-21T16:04:35.701Z,7.17
2023-01-21T16:07:18.284Z,5.53
2023-01-21T16:09:49.133Z,6.97
2023-01-21T16:12:27.857Z,7.23
2023-01-21T16:14:59.814Z,9.43
2023-01-21T16:17:49.994Z,9.40
2023-01-21T16:20:17.401Z,11.43
2023-01-21T16:22:46.545Z,8.43
2023-01-21T16:25:15.661Z,9.47
2023-01-21T16:27:49.238Z,8.23
2023-01-21T16:30:20.456Z,6.90
2023-01-21T16:32:49.430Z,9.10
2023-01-21T16:35:17.126Z,6.97
2023-01-21T16:37:44.496Z,6.80
2023-01-21T16:40:28.366Z,5.90
2023-01-21T16:43:23.422Z,7.20
2023-01-21T16:45:52.013Z,8.43
2023-01-21T16:48:27.509Z,5.00
2023-01-21T16:50:55.145Z,7.57
2023-01-21T16:53:23.343Z,10.20
2023-01-21T16:55:56.881Z,6.97
2023-01-21T16:58:29.577Z,7.73
2023-01-21T17:01:05.590Z,10.37
2023-01-21T17:03:33.301Z,11.27
2023-01-21T17:06:02.973Z,22.17
2023-01-21T17:08:30.380Z,13.07
2023-01-21T17:11:01.150Z,13.60
2023-01-21T17:13:29.838Z,6.10
2023-01-21T17:15:58.636Z,7.77
2023-01-21T17:18:39.814Z,7.67
2023-01-21T17:21:10.189Z,9.40
2023-01-21T17:23:40.303Z,13.60
2023-01-21T17:26:39.653Z,10.67
2023-01-21T17:29:11.871Z,10.87
2023-01-21T17:31:43.216Z,15.00
2023-01-21T17:34:16.322Z,8.63
2023-01-21T17:36:48.185Z,7.77
2023-01-21T17:39:17.117Z,8.13
2023-01-21T17:58:51.593Z,10.17
2023-01-21T18:01:19.955Z,8.90
2023-01-21T18:03:47.325Z,9.30
2023-01-21T18:06:19.331Z,10.17
2023-01-21T18:08:46.887Z,9.70
2023-01-21T18:11:17.934Z,8.07
2023-01-21T18:13:45.241Z,10.37
2023-01-21T18:16:12.512Z,13.23
2023-01-21T18:18:40.086Z,12.97
2023-01-21T18:21:07.503Z,16.53
2023-01-21T18:23:34.690Z,13.33
2023-01-21T18:26:02.403Z,9.23
2023-01-21T18:28:31.658Z,12.27
2023-01-21T18:30:59.861Z,11.80
2023-01-21T18:33:28.407Z,10.63
2023-01-21T18:35:55.936Z,9.80
2023-01-21T18:38:27.764Z,11.03
2023-01-21T18:40:58.368Z,11.97
2023-01-21T18:43:26.380Z,10.10
2023-01-21T18:45:54.817Z,11.30
2023-01-21T18:48:23.731Z,9.03
2023-01-21T18:50:51.086Z,10.80
2023-01-21T18:53:18.447Z,10.67
2023-01-21T18:55:48.578Z,12.77
2023-01-21T18:58:15.883Z,15.50
2023-01-21T19:00:43.470Z,11.07
2023-01-21T19:03:13.399Z,14.37
2023-01-21T19:05:41.379Z,11.80
2023-01-21T19:08:28.901Z,19.90
2023-01-21T19:10:56.562Z,12.67
2023-01-21T19:13:24.621Z,9.73
2023-01-21T19:15:53.465Z,13.67
2023-01-21T19:18:21.018Z,16.63
2023-01-21T19:20:48.418Z,14.97
2023-01-21T19:23:17.308Z,17.50
2023-01-21T19:25:48.380Z,8.47
2023-01-21T19:28:15.978Z,17.80
2023-01-21T19:30:45.276Z,10.70
2023-01-21T19:33:13.260Z,11.77
2023-01-21T19:35:43.842Z,9.50
2023-01-21T19:38:19.421Z,9.63
2023-01-21T19:40:47.584Z,8.73
2023-01-21T19:43:15.696Z,9.60
2023-01-21T19:45:43.679Z,11.63
2023-01-21T19:48:15.638Z,8.53
2023-01-21T19:50:43.570Z,12.87
2023-01-21T19:53:11.745Z,10.33
2023-01-21T19:55:39.955Z,9.33
2023-01-21T19:58:14.395Z,11.10
2023-01-21T20:00:41.869Z,9.33
2023-01-21T20:03:11.298Z,10.33
2023-01-21T20:05:38.854Z,8.50
2023-01-21T20:08:06.734Z,12.00
2023-01-21T20:10:34.234Z,10.20
2023-01-21T20:13:01.764Z,8.63
2023-01-21T20:15:30.938Z,11.40
2023-01-21T20:18:00.189Z,10.63
2023-01-21T20:20:31.774Z,11.67
2023-01-21T20:22:59.809Z,10.13
2023-01-21T20:25:36.943Z,9.87
2023-01-21T20:28:09.481Z,10.83
2023-01-21T20:30:36.961Z,13.33
2023-01-21T20:33:04.441Z,8.50
2023-01-21T20:35:32.333Z,8.27
2023-01-21T20:38:00.487Z,9.03
2023-01-21T20:40:28.996Z,11.67
2023-01-21T20:42:58.464Z,8.93
2023-01-21T20:45:31.752Z,11.23
2023-01-21T20:48:00.406Z,10.83
2023-01-21T20:50:33.608Z,10.53
2023-01-21T20:53:01.151Z,11.23
2023-01-21T20:55:29.459Z,7.07
2023-01-21T20:57:57.262Z,11.73
2023-01-21T21:00:29.325Z,11.10
2023-01-21T21:02:57.883Z,12.43
2023-01-21T21:05:27.427Z,10.77
2023-01-21T21:07:55.204Z,12.20
2023-01-21T21:10:41.315Z,12.53
2023-01-21T21:13:08.903Z,12.63
2023-01-21T21:15:37.433Z,9.43
2023-01-21T21:18:05.323Z,11.63
2023-01-21T21:20:34.391Z,10.50
2023-01-21T21:23:02.458Z,11.63
2023-01-21T21:25:31.224Z,11.13
2023-01-21T21:27:59.255Z,9.90
2023-01-21T21:30:31.509Z,8.90
2023-01-21T21:32:59.962Z,11.90
2023-01-21T21:35:35.802Z,14.47
2023-01-21T21:38:12.686Z,12.30
2023-01-21T21:40:40.187Z,13.57
2023-01-21T21:43:26.436Z,12.10
2023-01-21T21:46:12.555Z,11.40
2023-01-21T21:48:41.371Z,9.73
2023-01-21T21:51:13.264Z,11.13
2023-01-21T21:53:41.768Z,12.03
2023-01-21T21:56:20.016Z,10.53
2023-01-21T21:58:48.289Z,13.43
2023-01-21T22:01:17.890Z,11.43
2023-01-21T22:03:45.884Z,11.17
2023-01-21T22:06:13.674Z,11.20
2023-01-21T22:08:42.405Z,11.40
2023-01-21T22:11:15.006Z,16.37
2023-01-21T22:13:43.644Z,10.27
2023-01-21T22:16:13.180Z,10.80
2023-01-21T22:18:40.991Z,16.20
2023-01-21T22:21:14.575Z,9.07
2023-01-21T22:23:42.566Z,11.30
2023-01-21T22:26:13.366Z,10.27
2023-01-21T22:28:41.038Z,10.67
2023-01-21T22:31:10.123Z,12.13
2023-01-21T22:33:38.049Z,10.43
2023-01-21T22:36:06.313Z,10.27
2023-01-21T22:38:34.565Z,12.43
2023-01-21T22:41:02.317Z,9.70
2023-01-21T22:43:30.186Z,10.40
2023-01-21T22:45:57.704Z,13.23
2023-01-21T22:48:25.371Z,11.07
2023-01-21T22:51:01.860Z,11.43
2023-01-21T22:53:29.577Z,14.73
2023-01-21T22:55:57.943Z,10.13
2023-01-21T22:58:25.845Z,13.67
2023-01-21T23:00:53.528Z,15.17
2023-01-21T23:03:21.507Z,13.93
2023-01-21T23:05:49.069Z,13.67
2023-01-21T23:08:17.487Z,11.23
2023-01-21T23:10:45.298Z,12.17
2023-01-21T23:13:14.359Z,13.70
2023-01-21T23:15:45.304Z,13.47
2023-01-21T23:18:13.443Z,12.87
2023-01-21T23:20:42.035Z,11.33
2023-01-21T23:23:10.244Z,14.87
2023-01-21T23:25:45.257Z,15.87
2023-01-21T23:28:13.210Z,11.20
2023-01-21T23:30:40.514Z,11.60
2023-01-21T23:33:07.754Z,28.33
2023-01-21T23:35:35.381Z,11.63
2023-01-21T23:38:03.177Z,14.00
2023-01-21T23:40:30.383Z,11.33
2023-01-21T23:42:57.829Z,14.80
2023-01-21T23:45:25.267Z,12.03
2023-01-21T23:47:52.443Z,12.50
2023-01-21T23:50:19.981Z,10.00
2023-01-21T23:52:47.240Z,11.43
2023-01-21T23:55:14.712Z,11.57
2023-01-21T23:57:41.902Z,13.37
